Latest Coastal Weather Observations for Adele Island

IDW60701

Issued at 8:43 am WST Sunday 22 October 2017 (issued every 10 minutes, with the page automatically refreshed every 10 minutes)

About coastal observations | Map of coastal stations | Coastal observations for WA | Marine services | Other Formats
Station Details ID: 200735 Name: ADELE ISLAND Lat: -15.51 Lon: 123.16 Height: 4.6 m
Data from the previous 72 hours. | See also: Recent months at Adele Island
Date/Time
WST
Temp
°C
Wind Pressure Rain since
9am
mm
Weather Cloud Vis
km
Sea
Height
m
Swell
Dir  Spd
kts
Gust
kts
hPa Trend Height
m
Period
s
Dir
22/08:30am - SE 7 9 1012.7 - - - - - - - - -
22/08:00am - SSE 7 11 1012.6 - - - - - - - - -
22/07:30am - SSE 7 10 1012.4 - - - - - - - - -
22/07:00am - SSE 7 10 1012.2 - - - - - - - - -
22/06:30am - SSW 6 7 1012.0 - - - - - - - - -
22/06:00am - SW 4 5 1011.7 - - - - - - - - -
22/05:30am - SW 5 6 1011.5 - - - - - - - - -
22/05:00am - SSW 5 7 1011.2 - - - - - - - - -
22/04:30am - SSW 6 6 1011.0 - - - - - - - - -
22/04:00am - WSW 5 7 1010.7 - - - - - - - - -
22/03:30am - NNW 5 6 1010.6 - - - - - - - - -
22/03:00am - N 4 5 1010.3 - - - - - - - - -
22/02:30am - W 5 7 1010.1 - - - - - - - - -
22/02:00am - N 4 5 1010.3 - - - - - - - - -
22/01:30am - NNW 6 6 1010.6 - - - - - - - - -
22/01:00am - NNW 5 6 1010.9 - - - - - - - - -
22/12:30am - NNW 5 6 1010.9 - - - - - - - - -
22/12:00am - NNW 5 6 1011.0 - - - - - - - - -
 
Date/Time
WST
Temp
°C
Wind Pressure Rain since
9am
mm
Weather Cloud Vis
km
Sea
Height
m
Swell
Dir  Spd
kts
Gust
kts
hPa Trend Height
m
Period
s
Dir
21/11:30pm - NW 6 7 1011.3 - - - - - - - - -
21/11:00pm - NNW 6 7 1011.4 - - - - - - - - -
21/10:30pm - NNW 9 9 1011.5 - - - - - - - - -
21/10:00pm - NW 7 8 1011.5 - - - - - - - - -
21/09:30pm - NW 5 6 1011.5 - - - - - - - - -
21/09:00pm - N 5 5 1011.6 - - - - - - - - -
21/08:30pm - NNW 5 6 1011.5 - - - - - - - - -
21/08:00pm - N 4 5 1011.3 - - - - - - - - -
21/07:30pm - N 4 5 1011.2 - - - - - - - - -
21/07:00pm - NNW 6 7 1011.0 - - - - - - - - -
21/06:30pm - N 6 7 1010.9 - - - - - - - - -
21/06:00pm - N 8 8 1011.1 - - - - - - - - -
21/05:30pm - NNE 7 9 1011.2 - - - - - - - - -
21/05:00pm - NNE 7 9 1011.3 - - - - - - - - -
21/04:30pm - NNW 6 7 1010.8 - - - - - - - - -
21/04:00pm - N 4 5 1010.8 - - - - - - - - -
21/03:30pm - E 9 11 1011.6 - - - - - - - - -
21/03:00pm - E 12 15 1012.1 - - - - - - - - -
21/02:30pm - ENE 10 12 1011.9 - - - - - - - - -
21/02:00pm - N 5 7 1011.4 - - - - - - - - -
21/01:30pm - N 5 6 1011.9 - - - - - - - - -
21/01:00pm - NNW 6 8 1011.8 - - - - - - - - -
21/12:30pm - NNW 5 8 1012.4 - - - - - - - - -
21/12:00pm - N 5 7 1012.6 - - - - - - - - -
21/11:30am - N 4 7 1013.2 - - - - - - - - -
21/11:00am - NNW 6 8 1013.5 - - - - - - - - -
21/10:30am - N 5 6 1014.1 - - - - - - - - -
21/10:00am - NNW 6 8 1014.0 - - - - - - - - -
21/09:30am - NNE 5 7 1014.0 - - - - - - - - -
21/09:00am - NNW 5 8 1013.7 - - - - - - - - -
21/08:30am - NW 6 8 1013.5 - - - - - - - - -
21/08:00am - NNE 4 5 1013.6 - - - - - - - - -
21/07:30am - NE 4 5 1013.5 - - - - - - - - -
21/07:00am - NE 1 4 1013.3 - - - - - - - - -
21/06:30am - CALM 0 1 1013.0 - - - - - - - - -
21/06:00am - CALM 0 0 1012.7 - - - - - - - - -
21/05:30am - SSE 2 4 1012.1 - - - - - - - - -
21/05:00am - CALM 0 0 1011.5 - - - - - - - - -
21/04:30am - CALM 0 1 1011.2 - - - - - - - - -
21/04:00am - N 4 5 1010.9 - - - - - - - - -
21/03:30am - N 8 9 1010.8 - - - - - - - - -
21/03:00am - N 8 10 1010.8 - - - - - - - - -
21/02:30am - N 4 5 1010.4 - - - - - - - - -
21/02:00am - N 3 4 1010.4 - - - - - - - - -
21/01:30am - N 4 5 1010.4 - - - - - - - - -
21/01:00am - NNW 5 6 1010.6 - - - - - - - - -
21/12:30am - N 5 6 1010.8 - - - - - - - - -
21/12:00am - N 6 8 1010.9 - - - - - - - - -
 
Date/Time
WST
Temp
°C
Wind Pressure Rain since
9am
mm
Weather Cloud Vis
km
Sea
Height
m
Swell
Dir  Spd
kts
Gust
kts
hPa Trend Height
m
Period
s
Dir
20/11:30pm - NW 8 10 1011.0 - - - - - - - - -
20/11:00pm - NNW 10 11 1011.2 - - - - - - - - -
20/10:30pm - NW 11 13 1011.5 - - - - - - - - -
20/10:00pm - NW 11 13 1011.3 - - - - - - - - -
20/09:30pm - NNW 14 15 1011.2 - - - - - - - - -
20/09:00pm - NNW 13 15 1011.2 - - - - - - - - -
20/08:30pm - NNW 13 15 1011.3 - - - - - - - - -
20/08:00pm - N 14 16 1011.1 - - - - - - - - -
20/07:30pm - N 12 14 1011.0 - - - - - - - - -
20/07:00pm - NNW 11 13 1010.8 - - - - - - - - -
20/06:30pm - NNW 11 13 1010.6 - - - - - - - - -
20/06:00pm - N 11 13 1010.3 - - - - - - - - -
20/05:30pm - N 13 15 1009.8 - - - - - - - - -
20/05:00pm - N 10 12 1010.1 - - - - - - - - -
20/04:30pm - NE 9 11 1010.3 - - - - - - - - -
20/04:00pm - N 9 11 1009.9 - - - - - - - - -
20/03:30pm - N 12 15 1009.9 - - - - - - - - -
20/03:00pm - N 13 16 1010.0 - - - - - - - - -
20/02:30pm - N 12 15 1010.1 - - - - - - - - -
20/02:00pm - N 11 13 1010.0 - - - - - - - - -
20/01:30pm - NNE 10 12 1010.3 - - - - - - - - -
20/01:00pm - NNE 10 12 1010.6 - - - - - - - - -
20/12:30pm - NNE 10 13 1010.8 - - - - - - - - -
20/12:00pm - NNE 9 12 1011.1 - - - - - - - - -
20/11:30am - NE 11 13 1011.5 - - - - - - - - -
20/11:00am - NE 10 11 1012.0 - - - - - - - - -
20/10:30am - ENE 8 10 1012.4 - - - - - - - - -
20/10:00am - NE 7 9 1012.3 - - - - - - - - -
20/09:30am - NNE 8 11 1012.1 - - - - - - - - -
20/09:00am - N 11 13 1011.8 - - - - - - - - -
20/08:30am - N 9 11 1011.9 - - - - - - - - -
20/08:00am - NNE 7 9 1012.1 - - - - - - - - -
20/07:30am - N 8 11 1011.6 - - - - - - - - -
20/07:00am - N 8 9 1011.4 - - - - - - - - -
20/06:30am - NE 7 9 1011.1 - - - - - - - - -
20/06:00am - N 8 9 1009.8 - - - - - - - - -
20/05:30am - N 9 11 1009.4 - - - - - - - - -
20/05:00am - NNW 10 12 1009.0 - - - - - - - - -
20/04:30am - N 10 11 1008.9 - - - - - - - - -
20/04:00am - NNW 10 11 1008.6 - - - - - - - - -
20/03:30am - N 9 10 1008.4 - - - - - - - - -
20/03:00am - N 11 13 1008.3 - - - - - - - - -
20/02:30am - N 11 13 1008.4 - - - - - - - - -
20/02:00am - N 12 13 1008.5 - - - - - - - - -
20/01:30am - N 11 12 1008.7 - - - - - - - - -
20/01:00am - N 9 11 1009.1 - - - - - - - - -
20/12:30am - NNE 8 10 1009.7 - - - - - - - - -
20/12:00am - N 7 9 1009.5 - - - - - - - - -
 
Date/Time
WST
Temp
°C
Wind Pressure Rain since
9am
mm
Weather Cloud Vis
km
Sea
Height
m
Swell
Dir  Spd
kts
Gust
kts
hPa Trend Height
m
Period
s
Dir
19/11:30pm - N 7 9 1009.6 - - - - - - - - -
19/11:00pm - NNE 8 9 1010.0 - - - - - - - - -
19/10:30pm - N 6 8 1010.1 - - - - - - - - -
19/10:00pm - N 5 6 1010.1 - - - - - - - - -
19/09:30pm - NNW 5 7 1010.0 - - - - - - - - -
19/09:00pm - NNW 5 6 1009.6 - - - - - - - - -
19/08:30pm - WNW 7 8 1009.0 - - - - - - - - -
19/08:00pm - WNW 7 8 1008.6 - - - - - - - - -
19/07:30pm - WSW 9 10 1008.4 - - - - - - - - -
19/07:00pm - WSW 9 11 1008.2 - - - - - - - - -
19/06:30pm - WSW 9 11 1007.8 - - - - - - - - -
19/06:00pm - WSW 9 11 1007.4 - - - - - - - - -
19/05:30pm - WSW 10 12 1007.1 - - - - - - - - -
19/05:00pm - WSW 9 11 1006.7 - - - - - - - - -
19/04:30pm - W 8 11 1006.4 - - - - - - - - -
19/04:00pm - W 10 13 1006.0 - - - - - - - - -
19/03:30pm - W 9 11 1006.0 - - - - - - - - -
19/03:00pm - W 9 11 1006.1 - - - - - - - - -
19/02:30pm - W 9 10 1006.5 - - - - - - - - -
19/02:00pm - W 9 11 1006.7 - - - - - - - - -
19/01:30pm - W 10 12 1006.3 - - - - - - - - -
19/01:00pm - WNW 11 13 1006.6 - - - - - - - - -
19/12:30pm - WNW 9 11 1007.0 - - - - - - - - -
19/12:00pm - W 9 11 1007.3 - - - - - - - - -
19/11:30am - WSW 9 11 1007.7 - - - - - - - - -
19/11:00am - SW 10 12 1008.1 - - - - - - - - -
19/10:30am - WSW 10 11 1008.2 - - - - - - - - -
19/10:00am - WSW 10 11 1008.2 - - - - - - - - -
19/09:30am - SW 11 13 1008.5 - - - - - - - - -
19/09:00am - SSW 11 14 1008.4 - - - - - - - - -

Other Formats:

Comma delimited format used in spreadsheet applications
http://www.bom.gov.au/fwo/IDW60701/IDW60701.94210.axf

JavaScript Object Notation format (JSON) in row-major order
http://www.bom.gov.au/fwo/IDW60701/IDW60701.94210.json